メインページ
METAR-TAF:

METAR-TAF

空港 :

ラパス, メキシコ

緯度: 24-04N, 経度: 110-22W, 海抜: 21m

現時点の気象観測

当レポートは1時間8分前の04:45(UTC)に作成
無風
気温 19°C
湿度 68%
気圧 1018 hPa
視程: 16.1km
高度22000ftの千切れ雲あり

METAR: MMLP 210445Z 00000KT 10SM BKN220 19/13 A3006 RMK 8/008 ISOL SC

時間: 22:53 (05:53 UTC)

予報

当レポートは1時間42分前の04:11(UTC)に作成
予報は21日の 06時(UTC)から 22日の 06時(UTC)まで有効
の風 kt
視程: 10km
高度25000ftの千切れ雲あり
21日の 1800時(UTC)から
北西の風 10kt
視程: 10km
高度12000ftの雲は散在している
高度25000ftの曇り
22日の 0500時(UTC)から
の風 kt
視程: 10km
高度25000ftの千切れ雲あり

TAF: MMLP 210411Z 2106/2206 00000KT P6SM BKN250 FM211800 32010KT P6SM SCT120 OVC250 FM220500 00000KT P6SM BKN250

4,000以上の空港の気象観測と天気予報(METAR報とTAF報)

利用可能な観測所は地図上に黄色い丸と赤い丸で示す。

丸の上にカーソルを重ねると観測所名を参照できる。

次にクリックすると気象観測と天気予報を参照できる。

マップの切り替え:黒色「×」印の緑ボタンをクリックして拡大、「-」印の緑ボタンをクリックして縮小、緑色の三角印をクリックして隣りの地図に切り替え


METAR-TAF: